sensor_id;sensor_type;location;lat;lon;timestamp;P1;durP1;ratioP1;P2;durP2;ratioP2
7759;SDS011;3924;48.830;9.262;2023-06-22T00:02:24;3.97;;;3.30;;
7759;SDS011;3924;48.830;9.262;2023-06-22T00:04:51;5.40;;;3.10;;
7759;SDS011;3924;48.830;9.262;2023-06-22T00:07:18;3.53;;;3.23;;
7759;SDS011;3924;48.830;9.262;2023-06-22T00:09:44;6.20;;;3.07;;
7759;SDS011;3924;48.830;9.262;2023-06-22T00:12:11;3.40;;;2.67;;
7759;SDS011;3924;48.830;9.262;2023-06-22T00:14:37;3.73;;;3.40;;
7759;SDS011;3924;48.830;9.262;2023-06-22T00:17:03;4.43;;;3.40;;
7759;SDS011;3924;48.830;9.262;2023-06-22T00:19:30;5.00;;;3.43;;
7759;SDS011;3924;48.830;9.262;2023-06-22T00:21:56;3.60;;;2.47;;
7759;SDS011;3924;48.830;9.262;2023-06-22T00:24:26;2.97;;;2.77;;
7759;SDS011;3924;48.830;9.262;2023-06-22T00:26:53;4.27;;;2.93;;
7759;SDS011;3924;48.830;9.262;2023-06-22T00:29:19;4.53;;;2.83;;
7759;SDS011;3924;48.830;9.262;2023-06-22T00:31:47;4.57;;;3.30;;
7759;SDS011;3924;48.830;9.262;2023-06-22T00:34:13;3.00;;;2.70;;
7759;SDS011;3924;48.830;9.262;2023-06-22T00:36:40;3.50;;;3.13;;
7759;SDS011;3924;48.830;9.262;2023-06-22T00:39:07;7.63;;;3.10;;
7759;SDS011;3924;48.830;9.262;2023-06-22T00:41:34;3.60;;;3.20;;
7759;SDS011;3924;48.830;9.262;2023-06-22T00:44:00;3.57;;;3.00;;
7759;SDS011;3924;48.830;9.262;2023-06-22T00:46:27;5.63;;;2.97;;
7759;SDS011;3924;48.830;9.262;2023-06-22T00:48:54;3.30;;;2.73;;
7759;SDS011;3924;48.830;9.262;2023-06-22T00:51:23;3.67;;;2.80;;
7759;SDS011;3924;48.830;9.262;2023-06-22T00:53:51;3.23;;;2.47;;
7759;SDS011;3924;48.830;9.262;2023-06-22T00:56:19;6.40;;;3.20;;
7759;SDS011;3924;48.830;9.262;2023-06-22T00:58:50;3.80;;;2.87;;
7759;SDS011;3924;48.830;9.262;2023-06-22T01:01:19;2.83;;;2.63;;
7759;SDS011;3924;48.830;9.262;2023-06-22T01:03:50;4.20;;;2.93;;
7759;SDS011;3924;48.830;9.262;2023-06-22T01:06:22;3.70;;;3.33;;
7759;SDS011;3924;48.830;9.262;2023-06-22T01:09:11;4.03;;;3.63;;
7759;SDS011;3924;48.830;9.262;2023-06-22T01:11:54;5.37;;;3.63;;
7759;SDS011;3924;48.830;9.262;2023-06-22T01:14:33;8.40;;;3.00;;
7759;SDS011;3924;48.830;9.262;2023-06-22T01:17:06;3.77;;;2.57;;
7759;SDS011;3924;48.830;9.262;2023-06-22T01:22:04;3.10;;;2.80;;
7759;SDS011;3924;48.830;9.262;2023-06-22T01:30:19;4.07;;;3.10;;
7759;SDS011;3924;48.830;9.262;2023-06-22T01:32:46;6.60;;;3.13;;
7759;SDS011;3924;48.830;9.262;2023-06-22T01:35:14;3.87;;;3.30;;
7759;SDS011;3924;48.830;9.262;2023-06-22T01:37:41;5.23;;;3.70;;
7759;SDS011;3924;48.830;9.262;2023-06-22T01:40:08;3.50;;;3.20;;
7759;SDS011;3924;48.830;9.262;2023-06-22T01:42:36;6.03;;;2.97;;
7759;SDS011;3924;48.830;9.262;2023-06-22T01:45:03;4.37;;;3.23;;
7759;SDS011;3924;48.830;9.262;2023-06-22T01:47:32;4.87;;;3.50;;
7759;SDS011;3924;48.830;9.262;2023-06-22T01:49:59;3.23;;;2.93;;
7759;SDS011;3924;48.830;9.262;2023-06-22T01:52:26;4.90;;;3.30;;
7759;SDS011;3924;48.830;9.262;2023-06-22T01:54:53;12.73;;;3.27;;
7759;SDS011;3924;48.830;9.262;2023-06-22T01:57:20;4.50;;;3.23;;
7759;SDS011;3924;48.830;9.262;2023-06-22T01:59:55;3.23;;;2.80;;
7759;SDS011;3924;48.830;9.262;2023-06-22T02:02:30;3.53;;;3.03;;
7759;SDS011;3924;48.830;9.262;2023-06-22T02:05:04;3.57;;;2.93;;
7759;SDS011;3924;48.830;9.262;2023-06-22T02:07:34;4.17;;;3.10;;
7759;SDS011;3924;48.830;9.262;2023-06-22T02:10:10;3.57;;;3.23;;
7759;SDS011;3924;48.830;9.262;2023-06-22T02:12:41;6.67;;;3.40;;
7759;SDS011;3924;48.830;9.262;2023-06-22T02:15:10;4.37;;;3.30;;
7759;SDS011;3924;48.830;9.262;2023-06-22T02:17:38;5.23;;;3.23;;
7759;SDS011;3924;48.830;9.262;2023-06-22T02:20:05;4.67;;;3.23;;
7759;SDS011;3924;48.830;9.262;2023-06-22T02:22:34;3.47;;;3.17;;
7759;SDS011;3924;48.830;9.262;2023-06-22T02:25:00;4.23;;;3.43;;
7759;SDS011;3924;48.830;9.262;2023-06-22T02:27:27;7.50;;;3.93;;
7759;SDS011;3924;48.830;9.262;2023-06-22T02:29:53;7.57;;;3.57;;
7759;SDS011;3924;48.830;9.262;2023-06-22T02:32:20;7.23;;;3.10;;
7759;SDS011;3924;48.830;9.262;2023-06-22T02:34:46;5.37;;;3.97;;
7759;SDS011;3924;48.830;9.262;2023-06-22T02:37:13;4.17;;;3.10;;
7759;SDS011;3924;48.830;9.262;2023-06-22T02:39:41;8.03;;;3.37;;
7759;SDS011;3924;48.830;9.262;2023-06-22T02:42:07;6.77;;;3.03;;
7759;SDS011;3924;48.830;9.262;2023-06-22T02:44:34;3.50;;;3.20;;
7759;SDS011;3924;48.830;9.262;2023-06-22T02:47:00;6.13;;;3.60;;
7759;SDS011;3924;48.830;9.262;2023-06-22T02:49:27;5.93;;;3.80;;
7759;SDS011;3924;48.830;9.262;2023-06-22T02:51:54;4.93;;;3.50;;
7759;SDS011;3924;48.830;9.262;2023-06-22T02:54:21;7.37;;;3.80;;
7759;SDS011;3924;48.830;9.262;2023-06-22T02:56:47;4.60;;;3.40;;
7759;SDS011;3924;48.830;9.262;2023-06-22T02:59:14;5.40;;;3.93;;
7759;SDS011;3924;48.830;9.262;2023-06-22T03:01:40;4.40;;;3.00;;
7759;SDS011;3924;48.830;9.262;2023-06-22T03:04:07;15.77;;;4.33;;
7759;SDS011;3924;48.830;9.262;2023-06-22T03:06:34;8.07;;;3.37;;
7759;SDS011;3924;48.830;9.262;2023-06-22T03:09:02;4.57;;;3.27;;
7759;SDS011;3924;48.830;9.262;2023-06-22T03:11:32;3.13;;;2.80;;
7759;SDS011;3924;48.830;9.262;2023-06-22T03:13:59;3.00;;;2.80;;
7759;SDS011;3924;48.830;9.262;2023-06-22T03:16:26;6.30;;;3.83;;
7759;SDS011;3924;48.830;9.262;2023-06-22T03:18:53;4.90;;;3.37;;
7759;SDS011;3924;48.830;9.262;2023-06-22T03:21:21;3.70;;;3.37;;
7759;SDS011;3924;48.830;9.262;2023-06-22T03:23:49;5.73;;;3.63;;
7759;SDS011;3924;48.830;9.262;2023-06-22T03:26:18;5.07;;;3.20;;
7759;SDS011;3924;48.830;9.262;2023-06-22T03:28:45;4.73;;;3.40;;
7759;SDS011;3924;48.830;9.262;2023-06-22T03:31:12;4.23;;;2.90;;
7759;SDS011;3924;48.830;9.262;2023-06-22T03:33:38;3.27;;;2.97;;
7759;SDS011;3924;48.830;9.262;2023-06-22T03:36:05;6.07;;;3.73;;
7759;SDS011;3924;48.830;9.262;2023-06-22T03:38:31;5.60;;;3.30;;
7759;SDS011;3924;48.830;9.262;2023-06-22T03:40:58;2.97;;;2.77;;
7759;SDS011;3924;48.830;9.262;2023-06-22T03:43:25;5.37;;;3.40;;
7759;SDS011;3924;48.830;9.262;2023-06-22T03:45:51;3.93;;;3.50;;
7759;SDS011;3924;48.830;9.262;2023-06-22T03:48:18;4.70;;;3.10;;
7759;SDS011;3924;48.830;9.262;2023-06-22T03:50:44;4.23;;;3.83;;
7759;SDS011;3924;48.830;9.262;2023-06-22T03:53:11;7.00;;;3.37;;
7759;SDS011;3924;48.830;9.262;2023-06-22T03:55:48;6.03;;;3.83;;
7759;SDS011;3924;48.830;9.262;2023-06-22T03:58:16;5.07;;;3.57;;
7759;SDS011;3924;48.830;9.262;2023-06-22T04:00:48;7.73;;;3.40;;
7759;SDS011;3924;48.830;9.262;2023-06-22T04:03:15;3.70;;;3.07;;
7759;SDS011;3924;48.830;9.262;2023-06-22T04:05:42;8.57;;;3.67;;
7759;SDS011;3924;48.830;9.262;2023-06-22T04:08:09;4.70;;;3.83;;
7759;SDS011;3924;48.830;9.262;2023-06-22T04:10:35;7.97;;;3.23;;
7759;SDS011;3924;48.830;9.262;2023-06-22T04:13:01;8.13;;;3.53;;
7759;SDS011;3924;48.830;9.262;2023-06-22T04:15:28;6.03;;;3.60;;
7759;SDS011;3924;48.830;9.262;2023-06-22T04:17:55;5.73;;;3.77;;
7759;SDS011;3924;48.830;9.262;2023-06-22T04:20:22;4.93;;;3.30;;
7759;SDS011;3924;48.830;9.262;2023-06-22T04:22:55;3.63;;;3.03;;
7759;SDS011;3924;48.830;9.262;2023-06-22T04:25:21;8.73;;;3.77;;
7759;SDS011;3924;48.830;9.262;2023-06-22T04:27:48;6.63;;;4.17;;
7759;SDS011;3924;48.830;9.262;2023-06-22T04:30:14;10.30;;;4.23;;
7759;SDS011;3924;48.830;9.262;2023-06-22T04:32:42;7.37;;;3.33;;
7759;SDS011;3924;48.830;9.262;2023-06-22T04:35:10;5.13;;;3.33;;
7759;SDS011;3924;48.830;9.262;2023-06-22T04:37:38;4.43;;;3.40;;
7759;SDS011;3924;48.830;9.262;2023-06-22T04:40:05;5.53;;;3.57;;
7759;SDS011;3924;48.830;9.262;2023-06-22T04:42:33;3.77;;;3.40;;
7759;SDS011;3924;48.830;9.262;2023-06-22T04:45:02;5.60;;;3.80;;
7759;SDS011;3924;48.830;9.262;2023-06-22T04:47:29;5.53;;;3.60;;
7759;SDS011;3924;48.830;9.262;2023-06-22T04:49:55;4.63;;;3.57;;
7759;SDS011;3924;48.830;9.262;2023-06-22T04:52:22;6.47;;;3.40;;
7759;SDS011;3924;48.830;9.262;2023-06-22T04:54:48;5.27;;;3.83;;
7759;SDS011;3924;48.830;9.262;2023-06-22T04:57:16;3.93;;;3.40;;
7759;SDS011;3924;48.830;9.262;2023-06-22T04:59:43;4.20;;;3.40;;
7759;SDS011;3924;48.830;9.262;2023-06-22T05:02:10;3.83;;;3.40;;
7759;SDS011;3924;48.830;9.262;2023-06-22T05:04:36;5.97;;;3.73;;
7759;SDS011;3924;48.830;9.262;2023-06-22T05:07:05;4.37;;;3.90;;
7759;SDS011;3924;48.830;9.262;2023-06-22T05:09:32;7.67;;;3.63;;
7759;SDS011;3924;48.830;9.262;2023-06-22T05:12:02;3.70;;;3.07;;
7759;SDS011;3924;48.830;9.262;2023-06-22T05:14:32;5.30;;;3.23;;
7759;SDS011;3924;48.830;9.262;2023-06-22T05:16:59;5.50;;;3.50;;
7759;SDS011;3924;48.830;9.262;2023-06-22T05:19:30;5.93;;;3.30;;
7759;SDS011;3924;48.830;9.262;2023-06-22T05:22:00;3.70;;;2.97;;
7759;SDS011;3924;48.830;9.262;2023-06-22T05:24:27;3.23;;;2.93;;
7759;SDS011;3924;48.830;9.262;2023-06-22T05:26:53;3.63;;;3.27;;
7759;SDS011;3924;48.830;9.262;2023-06-22T05:29:19;3.07;;;2.87;;
7759;SDS011;3924;48.830;9.262;2023-06-22T05:31:48;3.60;;;3.30;;
7759;SDS011;3924;48.830;9.262;2023-06-22T05:34:15;5.40;;;2.90;;
7759;SDS011;3924;48.830;9.262;2023-06-22T05:36:42;4.20;;;3.67;;
7759;SDS011;3924;48.830;9.262;2023-06-22T05:39:13;3.87;;;3.30;;
7759;SDS011;3924;48.830;9.262;2023-06-22T05:41:41;6.40;;;3.93;;
7759;SDS011;3924;48.830;9.262;2023-06-22T05:44:09;3.77;;;3.27;;
7759;SDS011;3924;48.830;9.262;2023-06-22T05:46:35;5.10;;;3.40;;
7759;SDS011;3924;48.830;9.262;2023-06-22T05:49:03;5.27;;;3.03;;
7759;SDS011;3924;48.830;9.262;2023-06-22T05:51:30;8.67;;;3.20;;
7759;SDS011;3924;48.830;9.262;2023-06-22T05:53:56;5.50;;;3.70;;
7759;SDS011;3924;48.830;9.262;2023-06-22T05:56:23;5.30;;;3.23;;
7759;SDS011;3924;48.830;9.262;2023-06-22T05:58:49;4.43;;;3.40;;
7759;SDS011;3924;48.830;9.262;2023-06-22T06:01:19;4.07;;;3.13;;
7759;SDS011;3924;48.830;9.262;2023-06-22T06:03:46;4.13;;;3.07;;
7759;SDS011;3924;48.830;9.262;2023-06-22T06:06:13;2.87;;;2.63;;
7759;SDS011;3924;48.830;9.262;2023-06-22T06:08:40;3.73;;;2.83;;
7759;SDS011;3924;48.830;9.262;2023-06-22T06:11:07;4.67;;;3.20;;
7759;SDS011;3924;48.830;9.262;2023-06-22T06:13:34;7.17;;;3.70;;
7759;SDS011;3924;48.830;9.262;2023-06-22T06:16:00;4.00;;;3.23;;
7759;SDS011;3924;48.830;9.262;2023-06-22T06:18:27;5.60;;;3.87;;
7759;SDS011;3924;48.830;9.262;2023-06-22T06:20:53;3.80;;;2.67;;
7759;SDS011;3924;48.830;9.262;2023-06-22T06:23:20;3.00;;;2.60;;
7759;SDS011;3924;48.830;9.262;2023-06-22T06:25:46;5.00;;;3.50;;
7759;SDS011;3924;48.830;9.262;2023-06-22T06:28:13;3.10;;;2.80;;
7759;SDS011;3924;48.830;9.262;2023-06-22T06:30:39;7.03;;;3.77;;
7759;SDS011;3924;48.830;9.262;2023-06-22T06:33:07;3.97;;;3.37;;
7759;SDS011;3924;48.830;9.262;2023-06-22T06:35:35;3.47;;;3.10;;
7759;SDS011;3924;48.830;9.262;2023-06-22T06:38:02;6.03;;;3.13;;
7759;SDS011;3924;48.830;9.262;2023-06-22T06:40:28;3.57;;;2.87;;
7759;SDS011;3924;48.830;9.262;2023-06-22T06:42:55;6.47;;;3.80;;
7759;SDS011;3924;48.830;9.262;2023-06-22T06:45:23;5.43;;;3.67;;
7759;SDS011;3924;48.830;9.262;2023-06-22T06:47:50;2.90;;;2.57;;
7759;SDS011;3924;48.830;9.262;2023-06-22T06:50:18;3.13;;;2.47;;
7759;SDS011;3924;48.830;9.262;2023-06-22T06:52:45;3.17;;;2.83;;
7759;SDS011;3924;48.830;9.262;2023-06-22T06:55:11;3.83;;;2.47;;
7759;SDS011;3924;48.830;9.262;2023-06-22T06:57:39;7.40;;;3.03;;
7759;SDS011;3924;48.830;9.262;2023-06-22T07:00:06;5.27;;;2.97;;
7759;SDS011;3924;48.830;9.262;2023-06-22T07:02:39;4.20;;;3.13;;
7759;SDS011;3924;48.830;9.262;2023-06-22T07:05:08;4.93;;;3.47;;
7759;SDS011;3924;48.830;9.262;2023-06-22T07:07:35;2.93;;;2.33;;
7759;SDS011;3924;48.830;9.262;2023-06-22T07:10:04;3.17;;;2.70;;
7759;SDS011;3924;48.830;9.262;2023-06-22T07:12:32;4.57;;;2.83;;
7759;SDS011;3924;48.830;9.262;2023-06-22T07:15:03;2.77;;;2.40;;
7759;SDS011;3924;48.830;9.262;2023-06-22T07:17:31;3.17;;;2.90;;
7759;SDS011;3924;48.830;9.262;2023-06-22T07:19:57;6.90;;;2.90;;
7759;SDS011;3924;48.830;9.262;2023-06-22T07:22:24;3.40;;;2.87;;
7759;SDS011;3924;48.830;9.262;2023-06-22T07:24:51;4.73;;;2.93;;
7759;SDS011;3924;48.830;9.262;2023-06-22T07:27:17;2.80;;;2.57;;
7759;SDS011;3924;48.830;9.262;2023-06-22T07:29:47;3.00;;;2.50;;
7759;SDS011;3924;48.830;9.262;2023-06-22T07:32:14;2.63;;;2.43;;
7759;SDS011;3924;48.830;9.262;2023-06-22T07:34:40;4.30;;;2.20;;
7759;SDS011;3924;48.830;9.262;2023-06-22T07:37:07;3.10;;;2.30;;
7759;SDS011;3924;48.830;9.262;2023-06-22T07:39:34;6.97;;;2.17;;
7759;SDS011;3924;48.830;9.262;2023-06-22T07:42:00;2.60;;;2.40;;
7759;SDS011;3924;48.830;9.262;2023-06-22T07:44:27;2.47;;;2.10;;
7759;SDS011;3924;48.830;9.262;2023-06-22T07:46:54;2.37;;;2.03;;
7759;SDS011;3924;48.830;9.262;2023-06-22T07:49:20;2.63;;;2.30;;
7759;SDS011;3924;48.830;9.262;2023-06-22T07:51:47;2.77;;;2.10;;
7759;SDS011;3924;48.830;9.262;2023-06-22T07:54:13;8.60;;;2.10;;
7759;SDS011;3924;48.830;9.262;2023-06-22T07:56:42;2.47;;;2.07;;
7759;SDS011;3924;48.830;9.262;2023-06-22T07:59:09;4.60;;;1.90;;
7759;SDS011;3924;48.830;9.262;2023-06-22T08:01:35;4.30;;;2.00;;
7759;SDS011;3924;48.830;9.262;2023-06-22T08:04:02;2.90;;;2.13;;
7759;SDS011;3924;48.830;9.262;2023-06-22T08:06:29;2.37;;;1.60;;
7759;SDS011;3924;48.830;9.262;2023-06-22T08:08:57;1.90;;;1.80;;
7759;SDS011;3924;48.830;9.262;2023-06-22T08:11:25;2.30;;;2.10;;
7759;SDS011;3924;48.830;9.262;2023-06-22T08:13:51;2.73;;;2.30;;
7759;SDS011;3924;48.830;9.262;2023-06-22T08:16:18;1.73;;;1.60;;
7759;SDS011;3924;48.830;9.262;2023-06-22T08:18:45;5.57;;;2.10;;
7759;SDS011;3924;48.830;9.262;2023-06-22T08:21:11;2.37;;;2.17;;
7759;SDS011;3924;48.830;9.262;2023-06-22T08:23:38;5.87;;;2.30;;
7759;SDS011;3924;48.830;9.262;2023-06-22T08:26:04;1.70;;;1.60;;
7759;SDS011;3924;48.830;9.262;2023-06-22T08:28:31;3.73;;;2.47;;
7759;SDS011;3924;48.830;9.262;2023-06-22T08:30:57;4.17;;;2.47;;
7759;SDS011;3924;48.830;9.262;2023-06-22T08:33:24;2.50;;;1.67;;
7759;SDS011;3924;48.830;9.262;2023-06-22T08:35:55;2.93;;;1.90;;
7759;SDS011;3924;48.830;9.262;2023-06-22T08:38:21;3.03;;;2.20;;
7759;SDS011;3924;48.830;9.262;2023-06-22T08:40:48;2.80;;;1.90;;
7759;SDS011;3924;48.830;9.262;2023-06-22T08:43:14;6.53;;;2.10;;
7759;SDS011;3924;48.830;9.262;2023-06-22T08:45:41;4.43;;;2.43;;
7759;SDS011;3924;48.830;9.262;2023-06-22T08:48:09;6.17;;;1.93;;
7759;SDS011;3924;48.830;9.262;2023-06-22T08:50:36;2.03;;;1.93;;
7759;SDS011;3924;48.830;9.262;2023-06-22T08:53:02;3.00;;;2.17;;
7759;SDS011;3924;48.830;9.262;2023-06-22T08:55:29;7.40;;;2.90;;
7759;SDS011;3924;48.830;9.262;2023-06-22T08:57:56;4.33;;;2.30;;
7759;SDS011;3924;48.830;9.262;2023-06-22T09:00:22;3.00;;;1.93;;
7759;SDS011;3924;48.830;9.262;2023-06-22T09:02:49;2.67;;;2.07;;
7759;SDS011;3924;48.830;9.262;2023-06-22T09:05:16;2.50;;;1.90;;
7759;SDS011;3924;48.830;9.262;2023-06-22T09:07:43;8.33;;;2.23;;
7759;SDS011;3924;48.830;9.262;2023-06-22T09:10:09;3.40;;;1.87;;
7759;SDS011;3924;48.830;9.262;2023-06-22T09:12:36;2.47;;;2.20;;
7759;SDS011;3924;48.830;9.262;2023-06-22T09:15:04;2.97;;;2.60;;
7759;SDS011;3924;48.830;9.262;2023-06-22T09:17:37;2.53;;;1.93;;
7759;SDS011;3924;48.830;9.262;2023-06-22T09:20:04;6.57;;;2.53;;
7759;SDS011;3924;48.830;9.262;2023-06-22T09:22:33;3.83;;;2.67;;
7759;SDS011;3924;48.830;9.262;2023-06-22T09:24:59;4.60;;;2.37;;
7759;SDS011;3924;48.830;9.262;2023-06-22T09:27:26;5.70;;;1.93;;
7759;SDS011;3924;48.830;9.262;2023-06-22T09:29:53;3.87;;;2.27;;
7759;SDS011;3924;48.830;9.262;2023-06-22T09:32:19;3.00;;;2.30;;
7759;SDS011;3924;48.830;9.262;2023-06-22T09:34:45;4.10;;;2.10;;
7759;SDS011;3924;48.830;9.262;2023-06-22T09:37:12;2.83;;;2.23;;
7759;SDS011;3924;48.830;9.262;2023-06-22T09:39:40;7.40;;;2.03;;
7759;SDS011;3924;48.830;9.262;2023-06-22T09:42:06;4.87;;;2.10;;
7759;SDS011;3924;48.830;9.262;2023-06-22T09:44:33;4.33;;;2.30;;
7759;SDS011;3924;48.830;9.262;2023-06-22T09:47:00;3.47;;;2.33;;
7759;SDS011;3924;48.830;9.262;2023-06-22T09:49:26;3.13;;;2.30;;
7759;SDS011;3924;48.830;9.262;2023-06-22T09:52:12;3.37;;;2.40;;
7759;SDS011;3924;48.830;9.262;2023-06-22T09:54:39;4.73;;;2.30;;
7759;SDS011;3924;48.830;9.262;2023-06-22T09:57:06;3.47;;;2.50;;
7759;SDS011;3924;48.830;9.262;2023-06-22T09:59:33;5.43;;;2.23;;
7759;SDS011;3924;48.830;9.262;2023-06-22T10:01:59;6.37;;;2.63;;
7759;SDS011;3924;48.830;9.262;2023-06-22T10:04:26;3.83;;;2.40;;
7759;SDS011;3924;48.830;9.262;2023-06-22T10:06:53;7.17;;;2.37;;
7759;SDS011;3924;48.830;9.262;2023-06-22T10:09:19;2.30;;;1.93;;
7759;SDS011;3924;48.830;9.262;2023-06-22T10:11:47;2.60;;;2.40;;
7759;SDS011;3924;48.830;9.262;2023-06-22T10:14:13;3.53;;;2.40;;
7759;SDS011;3924;48.830;9.262;2023-06-22T10:16:40;4.07;;;2.30;;
7759;SDS011;3924;48.830;9.262;2023-06-22T10:19:08;2.20;;;2.00;;
7759;SDS011;3924;48.830;9.262;2023-06-22T10:21:34;3.03;;;2.40;;
7759;SDS011;3924;48.830;9.262;2023-06-22T10:24:01;5.60;;;2.10;;
7759;SDS011;3924;48.830;9.262;2023-06-22T10:26:37;5.93;;;2.43;;
7759;SDS011;3924;48.830;9.262;2023-06-22T10:29:03;2.07;;;1.87;;
7759;SDS011;3924;48.830;9.262;2023-06-22T10:31:41;3.03;;;2.10;;
7759;SDS011;3924;48.830;9.262;2023-06-22T10:34:07;2.60;;;2.40;;
7759;SDS011;3924;48.830;9.262;2023-06-22T10:36:34;2.40;;;2.20;;
7759;SDS011;3924;48.830;9.262;2023-06-22T10:39:01;3.10;;;2.80;;
7759;SDS011;3924;48.830;9.262;2023-06-22T10:41:28;5.83;;;2.10;;
7759;SDS011;3924;48.830;9.262;2023-06-22T10:43:58;6.30;;;2.60;;
7759;SDS011;3924;48.830;9.262;2023-06-22T10:46:24;6.63;;;2.53;;
7759;SDS011;3924;48.830;9.262;2023-06-22T10:48:52;5.60;;;2.50;;
7759;SDS011;3924;48.830;9.262;2023-06-22T10:51:20;7.77;;;2.47;;
7759;SDS011;3924;48.830;9.262;2023-06-22T10:53:47;6.10;;;2.50;;
7759;SDS011;3924;48.830;9.262;2023-06-22T10:56:13;10.10;;;2.77;;
7759;SDS011;3924;48.830;9.262;2023-06-22T10:58:40;1.77;;;1.67;;
7759;SDS011;3924;48.830;9.262;2023-06-22T11:01:06;3.87;;;2.73;;
7759;SDS011;3924;48.830;9.262;2023-06-22T11:03:37;4.07;;;2.00;;
7759;SDS011;3924;48.830;9.262;2023-06-22T11:06:04;10.70;;;2.27;;
7759;SDS011;3924;48.830;9.262;2023-06-22T11:08:31;11.83;;;2.20;;
7759;SDS011;3924;48.830;9.262;2023-06-22T11:10:58;5.10;;;2.20;;
7759;SDS011;3924;48.830;9.262;2023-06-22T11:13:24;2.43;;;1.63;;
7759;SDS011;3924;48.830;9.262;2023-06-22T11:15:51;2.07;;;1.83;;
7759;SDS011;3924;48.830;9.262;2023-06-22T11:18:18;6.07;;;2.20;;
7759;SDS011;3924;48.830;9.262;2023-06-22T11:20:44;4.17;;;2.90;;
7759;SDS011;3924;48.830;9.262;2023-06-22T11:23:11;5.60;;;2.33;;
7759;SDS011;3924;48.830;9.262;2023-06-22T11:25:38;2.57;;;1.80;;
7759;SDS011;3924;48.830;9.262;2023-06-22T11:28:06;2.20;;;1.97;;
7759;SDS011;3924;48.830;9.262;2023-06-22T11:30:32;6.77;;;2.10;;
7759;SDS011;3924;48.830;9.262;2023-06-22T11:33:00;7.07;;;2.00;;
7759;SDS011;3924;48.830;9.262;2023-06-22T11:35:27;4.13;;;2.13;;
7759;SDS011;3924;48.830;9.262;2023-06-22T11:37:53;3.30;;;2.17;;
7759;SDS011;3924;48.830;9.262;2023-06-22T11:40:20;4.87;;;2.70;;
7759;SDS011;3924;48.830;9.262;2023-06-22T11:42:46;2.67;;;2.17;;
7759;SDS011;3924;48.830;9.262;2023-06-22T11:45:13;2.13;;;1.97;;
7759;SDS011;3924;48.830;9.262;2023-06-22T11:47:40;2.83;;;2.20;;
7759;SDS011;3924;48.830;9.262;2023-06-22T11:50:06;7.47;;;2.20;;
7759;SDS011;3924;48.830;9.262;2023-06-22T11:52:33;4.13;;;2.57;;
7759;SDS011;3924;48.830;9.262;2023-06-22T11:55:02;3.73;;;1.90;;
7759;SDS011;3924;48.830;9.262;2023-06-22T11:57:34;2.10;;;1.87;;
7759;SDS011;3924;48.830;9.262;2023-06-22T12:00:05;10.00;;;2.77;;
7759;SDS011;3924;48.830;9.262;2023-06-22T12:02:39;3.73;;;2.37;;
7759;SDS011;3924;48.830;9.262;2023-06-22T12:05:06;11.00;;;2.90;;
7759;SDS011;3924;48.830;9.262;2023-06-22T12:07:34;7.83;;;2.57;;
7759;SDS011;3924;48.830;9.262;2023-06-22T12:10:01;3.87;;;2.60;;
7759;SDS011;3924;48.830;9.262;2023-06-22T12:12:28;12.50;;;2.30;;
7759;SDS011;3924;48.830;9.262;2023-06-22T12:14:55;2.73;;;2.20;;
7759;SDS011;3924;48.830;9.262;2023-06-22T12:17:23;4.20;;;2.50;;
7759;SDS011;3924;48.830;9.262;2023-06-22T12:19:49;4.87;;;2.33;;
7759;SDS011;3924;48.830;9.262;2023-06-22T12:22:16;5.37;;;2.70;;
7759;SDS011;3924;48.830;9.262;2023-06-22T12:24:42;2.50;;;2.20;;
7759;SDS011;3924;48.830;9.262;2023-06-22T12:27:09;4.53;;;2.87;;
7759;SDS011;3924;48.830;9.262;2023-06-22T12:29:41;4.67;;;3.00;;
7759;SDS011;3924;48.830;9.262;2023-06-22T12:32:16;3.23;;;2.30;;
7759;SDS011;3924;48.830;9.262;2023-06-22T12:34:47;2.30;;;2.07;;
7759;SDS011;3924;48.830;9.262;2023-06-22T12:37:33;11.80;;;2.80;;
7759;SDS011;3924;48.830;9.262;2023-06-22T13:05:31;9.83;;;2.90;;
7759;SDS011;3924;48.830;9.262;2023-06-22T13:08:00;14.73;;;2.43;;
7759;SDS011;3924;48.830;9.262;2023-06-22T13:10:28;2.77;;;2.53;;
7759;SDS011;3924;48.830;9.262;2023-06-22T13:12:54;6.30;;;2.73;;
7759;SDS011;3924;48.830;9.262;2023-06-22T13:15:27;4.60;;;2.50;;
7759;SDS011;3924;48.830;9.262;2023-06-22T13:17:55;4.00;;;2.63;;
7759;SDS011;3924;48.830;9.262;2023-06-22T13:20:22;4.07;;;2.90;;
7759;SDS011;3924;48.830;9.262;2023-06-22T13:22:49;5.20;;;2.67;;
7759;SDS011;3924;48.830;9.262;2023-06-22T13:25:15;7.20;;;2.50;;
7759;SDS011;3924;48.830;9.262;2023-06-22T13:27:45;4.87;;;2.00;;
7759;SDS011;3924;48.830;9.262;2023-06-22T13:30:12;4.13;;;2.80;;
7759;SDS011;3924;48.830;9.262;2023-06-22T13:32:40;4.80;;;2.73;;
7759;SDS011;3924;48.830;9.262;2023-06-22T13:35:10;4.43;;;2.73;;
7759;SDS011;3924;48.830;9.262;2023-06-22T13:37:37;4.13;;;2.57;;
7759;SDS011;3924;48.830;9.262;2023-06-22T13:40:07;7.43;;;2.37;;
7759;SDS011;3924;48.830;9.262;2023-06-22T13:42:34;4.90;;;2.97;;
7759;SDS011;3924;48.830;9.262;2023-06-22T13:45:01;8.83;;;2.57;;
7759;SDS011;3924;48.830;9.262;2023-06-22T13:47:29;11.97;;;2.90;;
7759;SDS011;3924;48.830;9.262;2023-06-22T13:49:57;5.90;;;3.30;;
7759;SDS011;3924;48.830;9.262;2023-06-22T13:52:24;3.57;;;2.57;;
7759;SDS011;3924;48.830;9.262;2023-06-22T13:54:51;4.83;;;2.50;;
7759;SDS011;3924;48.830;9.262;2023-06-22T13:57:17;3.43;;;1.73;;
7759;SDS011;3924;48.830;9.262;2023-06-22T13:59:44;3.90;;;2.80;;
7759;SDS011;3924;48.830;9.262;2023-06-22T14:02:10;6.33;;;3.03;;
7759;SDS011;3924;48.830;9.262;2023-06-22T14:04:47;4.00;;;2.20;;
7759;SDS011;3924;48.830;9.262;2023-06-22T14:11:35;5.77;;;2.03;;
7759;SDS011;3924;48.830;9.262;2023-06-22T14:37:46;11.90;;;2.73;;
7759;SDS011;3924;48.830;9.262;2023-06-22T14:44:43;2.60;;;2.13;;
7759;SDS011;3924;48.830;9.262;2023-06-22T15:06:26;3.37;;;2.10;;
7759;SDS011;3924;48.830;9.262;2023-06-22T15:08:53;2.57;;;2.37;;
7759;SDS011;3924;48.830;9.262;2023-06-22T15:11:19;5.07;;;2.33;;
7759;SDS011;3924;48.830;9.262;2023-06-22T15:13:46;5.87;;;2.33;;
7759;SDS011;3924;48.830;9.262;2023-06-22T15:16:13;4.93;;;2.03;;
7759;SDS011;3924;48.830;9.262;2023-06-22T15:18:39;7.10;;;2.13;;
7759;SDS011;3924;48.830;9.262;2023-06-22T15:21:07;5.57;;;2.17;;
7759;SDS011;3924;48.830;9.262;2023-06-22T15:23:33;3.40;;;1.33;;
7759;SDS011;3924;48.830;9.262;2023-06-22T15:26:02;3.67;;;1.77;;
7759;SDS011;3924;48.830;9.262;2023-06-22T15:28:31;6.93;;;1.43;;
7759;SDS011;3924;48.830;9.262;2023-06-22T15:30:58;2.37;;;1.50;;
7759;SDS011;3924;48.830;9.262;2023-06-22T15:33:25;7.83;;;2.67;;
7759;SDS011;3924;48.830;9.262;2023-06-22T15:35:51;7.07;;;1.90;;
7759;SDS011;3924;48.830;9.262;2023-06-22T15:38:22;5.40;;;1.50;;
7759;SDS011;3924;48.830;9.262;2023-06-22T15:40:48;9.23;;;1.73;;
7759;SDS011;3924;48.830;9.262;2023-06-22T15:43:15;3.23;;;1.87;;
7759;SDS011;3924;48.830;9.262;2023-06-22T15:45:41;8.50;;;1.53;;
7759;SDS011;3924;48.830;9.262;2023-06-22T15:48:08;1.53;;;1.33;;
7759;SDS011;3924;48.830;9.262;2023-06-22T15:50:35;5.80;;;1.37;;
7759;SDS011;3924;48.830;9.262;2023-06-22T15:53:01;6.43;;;1.60;;
7759;SDS011;3924;48.830;9.262;2023-06-22T15:55:28;4.33;;;2.03;;
7759;SDS011;3924;48.830;9.262;2023-06-22T15:57:57;5.20;;;1.50;;
7759;SDS011;3924;48.830;9.262;2023-06-22T16:00:23;1.87;;;1.53;;
7759;SDS011;3924;48.830;9.262;2023-06-22T16:02:50;4.37;;;1.67;;
7759;SDS011;3924;48.830;9.262;2023-06-22T16:05:16;3.17;;;1.87;;
7759;SDS011;3924;48.830;9.262;2023-06-22T16:07:43;11.73;;;1.67;;
7759;SDS011;3924;48.830;9.262;2023-06-22T16:10:10;2.60;;;1.23;;
7759;SDS011;3924;48.830;9.262;2023-06-22T16:12:36;6.50;;;1.93;;
7759;SDS011;3924;48.830;9.262;2023-06-22T16:15:03;3.50;;;1.47;;
7759;SDS011;3924;48.830;9.262;2023-06-22T16:17:30;2.50;;;1.67;;
7759;SDS011;3924;48.830;9.262;2023-06-22T16:19:59;5.00;;;1.73;;
7759;SDS011;3924;48.830;9.262;2023-06-22T16:22:26;3.80;;;1.30;;
7759;SDS011;3924;48.830;9.262;2023-06-22T16:24:53;2.40;;;1.30;;
7759;SDS011;3924;48.830;9.262;2023-06-22T16:27:22;3.67;;;1.67;;
7759;SDS011;3924;48.830;9.262;2023-06-22T16:29:50;2.77;;;1.23;;
7759;SDS011;3924;48.830;9.262;2023-06-22T16:32:17;3.80;;;1.60;;
7759;SDS011;3924;48.830;9.262;2023-06-22T16:34:44;2.97;;;1.47;;
7759;SDS011;3924;48.830;9.262;2023-06-22T16:37:12;3.67;;;1.70;;
7759;SDS011;3924;48.830;9.262;2023-06-22T16:39:39;1.37;;;1.00;;
7759;SDS011;3924;48.830;9.262;2023-06-22T16:42:06;1.83;;;1.43;;
7759;SDS011;3924;48.830;9.262;2023-06-22T16:44:33;3.17;;;1.37;;